createdAt,value
2023-04-27T00:00:18.215Z,0.85
2023-04-27T00:01:18.134Z,0.75
2023-04-27T00:02:18.314Z,0.77
2023-04-27T00:03:18.258Z,0.62
2023-04-27T00:04:18.383Z,0.53
2023-04-27T00:05:18.274Z,0.53
2023-04-27T00:06:18.124Z,0.67
2023-04-27T00:07:18.064Z,0.66
2023-04-27T00:08:18.053Z,0.58
2023-04-27T00:09:18.035Z,0.68
2023-04-27T00:10:18.024Z,0.60
2023-04-27T00:11:18.029Z,0.84
2023-04-27T00:12:17.990Z,0.72
2023-04-27T00:13:17.971Z,0.84
2023-04-27T00:14:17.941Z,0.67
2023-04-27T00:15:17.952Z,0.75
2023-04-27T00:16:17.955Z,0.73
2023-04-27T00:17:17.911Z,0.70
2023-04-27T00:18:17.894Z,0.78
2023-04-27T00:19:17.896Z,0.52
2023-04-27T00:20:17.860Z,0.54
2023-04-27T00:21:17.865Z,0.72
2023-04-27T00:22:17.844Z,0.72
2023-04-27T00:23:17.821Z,0.81
2023-04-27T00:24:17.809Z,0.73
2023-04-27T00:25:17.803Z,0.59
2023-04-27T00:26:17.794Z,0.55
2023-04-27T00:27:17.773Z,0.64
2023-04-27T00:28:17.766Z,0.62
2023-04-27T00:29:17.735Z,0.83
2023-04-27T00:30:17.717Z,0.54
2023-04-27T00:31:17.730Z,0.95
2023-04-27T00:32:17.699Z,0.74
2023-04-27T00:33:17.683Z,0.90
2023-04-27T00:34:17.664Z,0.77
2023-04-27T00:35:17.674Z,0.59
2023-04-27T00:36:17.670Z,0.84
2023-04-27T00:37:17.644Z,0.70
2023-04-27T00:38:17.643Z,0.82
2023-04-27T00:39:17.615Z,0.76
2023-04-27T00:40:17.607Z,0.70
2023-04-27T00:41:17.602Z,0.76
2023-04-27T00:42:17.592Z,0.84
2023-04-27T00:43:17.572Z,0.69
2023-04-27T00:44:17.561Z,0.96
2023-04-27T00:45:17.554Z,0.78
2023-04-27T00:46:17.575Z,0.71
2023-04-27T00:47:17.552Z,0.60
2023-04-27T00:48:17.530Z,1.00
2023-04-27T00:49:17.512Z,0.77
2023-04-27T00:50:17.509Z,0.51
2023-04-27T00:51:17.498Z,0.52
2023-04-27T00:52:17.481Z,0.65
2023-04-27T00:53:17.464Z,0.85
2023-04-27T00:54:17.467Z,0.78
2023-04-27T00:55:17.449Z,0.70
2023-04-27T00:56:17.438Z,0.73
2023-04-27T00:57:17.410Z,0.58
2023-04-27T00:58:17.401Z,0.61
2023-04-27T00:59:17.399Z,0.62
2023-04-27T01:00:17.377Z,0.50
2023-04-27T01:01:17.376Z,0.80
2023-04-27T01:02:17.479Z,0.98
2023-04-27T01:03:17.415Z,0.91
2023-04-27T01:04:17.395Z,0.76
2023-04-27T01:05:17.301Z,0.86
2023-04-27T01:06:17.308Z,1.03
2023-04-27T01:07:17.296Z,0.55
2023-04-27T01:08:17.270Z,0.85
2023-04-27T01:09:17.250Z,0.87
2023-04-27T01:10:17.234Z,0.81
2023-04-27T01:11:17.243Z,0.85
2023-04-27T01:12:17.218Z,0.58
2023-04-27T01:13:17.195Z,0.56
2023-04-27T01:14:17.263Z,0.79
2023-04-27T01:15:17.183Z,0.71
2023-04-27T01:16:17.222Z,0.97
2023-04-27T01:17:17.166Z,0.70
2023-04-27T01:18:17.145Z,0.88
2023-04-27T01:19:17.133Z,0.89
2023-04-27T01:20:17.123Z,0.81
2023-04-27T01:21:17.116Z,0.59
2023-04-27T01:22:17.101Z,0.67
2023-04-27T01:23:17.665Z,0.70
2023-04-27T01:24:17.078Z,0.67
2023-04-27T01:25:17.077Z,0.64
2023-04-27T01:26:17.066Z,0.69
2023-04-27T01:27:17.071Z,0.69
2023-04-27T01:28:17.062Z,0.88
2023-04-27T01:29:17.053Z,0.62
2023-04-27T01:30:17.046Z,0.80
2023-04-27T01:31:17.085Z,0.91
2023-04-27T01:32:17.024Z,0.80
2023-04-27T01:33:17.032Z,0.68
2023-04-27T01:34:17.028Z,0.50
2023-04-27T01:35:17.005Z,0.46
2023-04-27T01:36:16.996Z,0.83
2023-04-27T01:37:16.992Z,0.77
2023-04-27T01:38:16.969Z,0.73
2023-04-27T01:39:16.955Z,0.87
2023-04-27T01:40:16.938Z,0.68
2023-04-27T01:41:16.919Z,0.59
2023-04-27T01:42:16.903Z,1.02
2023-04-27T01:43:16.867Z,0.73
2023-04-27T01:44:16.854Z,0.77
2023-04-27T01:45:16.836Z,0.64
2023-04-27T01:46:16.858Z,0.85
2023-04-27T01:47:16.805Z,0.69
2023-04-27T01:48:16.771Z,0.72
2023-04-27T01:49:17.012Z,0.68
2023-04-27T01:50:16.708Z,0.51
2023-04-27T01:51:16.677Z,0.58
2023-04-27T01:52:16.652Z,0.75
2023-04-27T01:53:16.634Z,0.35
2023-04-27T01:54:16.594Z,0.64
2023-04-27T01:55:16.570Z,0.64
2023-04-27T01:56:16.553Z,0.58
2023-04-27T01:57:16.539Z,0.68
2023-04-27T01:58:16.510Z,0.88
2023-04-27T01:59:16.455Z,0.60
2023-04-27T02:00:16.415Z,0.64
2023-04-27T02:01:16.407Z,0.52
2023-04-27T02:02:16.381Z,0.72
2023-04-27T02:03:16.467Z,0.83
2023-04-27T02:04:16.500Z,0.92
2023-04-27T02:05:16.245Z,0.68
2023-04-27T02:06:16.214Z,0.80
2023-04-27T02:07:16.200Z,0.58
2023-04-27T02:08:16.139Z,0.80
2023-04-27T02:09:16.230Z,0.59
2023-04-27T02:10:16.090Z,0.53
2023-04-27T02:11:16.046Z,0.85
2023-04-27T02:12:16.029Z,0.63
2023-04-27T02:13:15.984Z,0.70
2023-04-27T02:14:15.949Z,0.77
2023-04-27T02:15:15.896Z,0.61
2023-04-27T02:16:15.894Z,0.74
2023-04-27T02:17:15.821Z,0.91
2023-04-27T02:18:15.783Z,0.58
2023-04-27T02:19:16.081Z,0.65
2023-04-27T02:20:15.709Z,0.69
2023-04-27T02:21:15.662Z,0.53
2023-04-27T02:22:15.627Z,0.87
2023-04-27T02:23:15.586Z,0.64
2023-04-27T02:24:15.552Z,0.65
2023-04-27T02:25:15.537Z,0.81
2023-04-27T02:26:15.467Z,0.59
2023-04-27T02:27:15.460Z,0.65
2023-04-27T02:28:15.434Z,0.69
2023-04-27T02:29:15.549Z,0.49
2023-04-27T02:30:15.406Z,0.72
2023-04-27T02:31:15.410Z,0.64
2023-04-27T02:32:15.350Z,0.94
2023-04-27T02:33:15.336Z,1.84
2023-04-27T02:34:15.303Z,0.60
2023-04-27T02:35:15.281Z,0.60
2023-04-27T02:36:15.255Z,0.80
2023-04-27T02:37:15.294Z,0.73
2023-04-27T02:38:15.180Z,0.44
2023-04-27T02:39:15.369Z,0.60
2023-04-27T02:40:15.139Z,0.81
2023-04-27T02:41:15.101Z,0.48
2023-04-27T02:42:15.092Z,0.70
2023-04-27T02:43:15.077Z,0.61
2023-04-27T02:44:15.036Z,0.65
2023-04-27T02:45:14.997Z,0.69
2023-04-27T02:46:14.981Z,0.60
2023-04-27T02:47:14.921Z,0.65
2023-04-27T02:48:14.893Z,0.69
2023-04-27T02:49:15.052Z,0.75
2023-04-27T02:50:14.821Z,0.67
2023-04-27T02:51:14.790Z,0.59
2023-04-27T02:52:14.753Z,0.48
2023-04-27T02:53:14.733Z,0.62
2023-04-27T02:54:14.698Z,0.61
2023-04-27T02:55:14.664Z,0.95
2023-04-27T02:56:14.622Z,0.61
2023-04-27T02:57:14.575Z,0.54
2023-04-27T02:58:14.559Z,0.63
2023-04-27T02:59:14.861Z,1.10
2023-04-27T03:00:14.492Z,0.77
2023-04-27T03:01:14.470Z,0.59
2023-04-27T03:02:14.478Z,0.62
2023-04-27T03:03:14.506Z,0.87
2023-04-27T03:04:14.491Z,0.80
2023-04-27T03:05:14.327Z,0.78
2023-04-27T03:06:14.287Z,0.65
2023-04-27T03:07:14.253Z,0.79
2023-04-27T03:08:14.382Z,0.57
2023-04-27T03:09:14.459Z,0.90
2023-04-27T03:10:14.190Z,0.82
2023-04-27T03:11:14.137Z,0.52
2023-04-27T03:12:14.109Z,0.80
2023-04-27T03:13:14.083Z,0.59
2023-04-27T03:14:14.049Z,0.50
2023-04-27T03:15:14.003Z,0.52
2023-04-27T03:16:14.028Z,0.87
2023-04-27T03:17:13.935Z,0.98
2023-04-27T03:18:13.928Z,0.56
2023-04-27T03:19:14.092Z,0.92
2023-04-27T03:20:13.885Z,0.62
2023-04-27T03:21:13.844Z,0.62
2023-04-27T03:22:13.825Z,0.75
2023-04-27T03:23:13.798Z,0.70
2023-04-27T03:24:13.792Z,0.55
2023-04-27T03:25:13.742Z,0.70
2023-04-27T03:26:13.698Z,0.77
2023-04-27T03:27:13.661Z,0.63
2023-04-27T03:28:13.636Z,0.57
2023-04-27T03:29:13.762Z,0.70
2023-04-27T03:30:13.563Z,0.55
2023-04-27T03:31:13.558Z,0.77
2023-04-27T03:32:13.583Z,0.52
2023-04-27T03:33:13.567Z,0.67
2023-04-27T03:34:13.506Z,0.70
2023-04-27T03:35:13.468Z,0.80
2023-04-27T03:36:13.449Z,0.79
2023-04-27T03:37:13.416Z,0.50
2023-04-27T03:38:13.404Z,0.60
2023-04-27T03:39:13.616Z,0.49
2023-04-27T03:40:13.335Z,0.71
2023-04-27T03:41:13.306Z,0.55
2023-04-27T03:42:13.258Z,0.81
2023-04-27T03:43:13.233Z,0.60
2023-04-27T03:44:13.216Z,0.79
2023-04-27T03:45:13.171Z,0.89
2023-04-27T03:46:13.182Z,1.00
2023-04-27T03:47:13.142Z,0.65
2023-04-27T03:48:13.111Z,0.67
2023-04-27T03:49:13.276Z,0.49
2023-04-27T03:50:13.062Z,0.46
2023-04-27T03:51:13.009Z,0.51
2023-04-27T03:52:12.976Z,0.96
2023-04-27T03:53:12.959Z,0.75
2023-04-27T03:54:12.926Z,0.58
2023-04-27T03:55:12.888Z,0.60
2023-04-27T03:56:12.845Z,0.98
2023-04-27T03:57:12.816Z,0.67
2023-04-27T03:58:12.796Z,0.84
2023-04-27T03:59:12.992Z,0.41
2023-04-27T04:00:12.717Z,0.62
2023-04-27T04:01:12.682Z,0.48
2023-04-27T04:02:12.714Z,0.55
2023-04-27T04:03:12.885Z,0.58
2023-04-27T04:04:12.748Z,0.81
2023-04-27T04:05:12.737Z,0.76
2023-04-27T04:06:12.505Z,0.71
2023-04-27T04:07:12.473Z,0.59
2023-04-27T04:08:12.438Z,0.59
2023-04-27T04:09:12.583Z,0.54
2023-04-27T04:10:12.376Z,0.73
2023-04-27T04:11:12.332Z,0.63
2023-04-27T04:12:12.307Z,0.50
2023-04-27T04:13:12.269Z,0.66
2023-04-27T04:14:12.232Z,0.63
2023-04-27T04:15:12.203Z,0.65
2023-04-27T04:16:12.189Z,0.53
2023-04-27T04:17:12.153Z,0.75
2023-04-27T04:18:12.190Z,0.68
2023-04-27T04:19:12.233Z,0.70
2023-04-27T04:20:12.041Z,0.55
2023-04-27T04:21:12.012Z,0.57
2023-04-27T04:22:12.087Z,0.47
2023-04-27T04:23:12.020Z,0.72
2023-04-27T04:24:11.910Z,0.66
2023-04-27T04:25:11.884Z,0.57
2023-04-27T04:26:11.842Z,0.70
2023-04-27T04:27:11.810Z,0.66
2023-04-27T04:28:11.777Z,0.70
2023-04-27T04:29:11.765Z,0.59
2023-04-27T04:30:11.709Z,0.63
2023-04-27T04:31:11.724Z,0.49
2023-04-27T04:32:11.651Z,1.05
2023-04-27T04:33:11.611Z,0.81
2023-04-27T04:34:11.584Z,0.79
2023-04-27T04:35:11.565Z,0.85
2023-04-27T04:36:11.537Z,0.62
2023-04-27T04:37:11.504Z,0.40
2023-04-27T04:38:11.489Z,0.90
2023-04-27T04:39:11.509Z,0.59
2023-04-27T04:40:11.412Z,0.53
2023-04-27T04:41:11.379Z,0.77
2023-04-27T04:42:11.360Z,0.71
2023-04-27T04:43:11.326Z,0.62
2023-04-27T04:44:11.297Z,0.60
2023-04-27T04:45:11.268Z,0.62
2023-04-27T04:46:11.293Z,0.60
2023-04-27T04:47:11.207Z,0.78
2023-04-27T04:48:11.171Z,0.72
2023-04-27T04:49:11.164Z,0.67
2023-04-27T04:50:11.106Z,0.82
2023-04-27T04:51:11.078Z,0.66
2023-04-27T04:52:11.067Z,0.72
2023-04-27T04:53:11.025Z,0.65
2023-04-27T04:54:11.000Z,0.65
2023-04-27T04:55:10.964Z,0.55
2023-04-27T04:56:10.926Z,0.63
2023-04-27T04:57:10.896Z,0.46
2023-04-27T04:58:10.876Z,0.46
2023-04-27T04:59:10.956Z,0.64
2023-04-27T05:00:10.820Z,0.55
2023-04-27T05:01:10.814Z,0.80
2023-04-27T05:02:10.746Z,0.60
2023-04-27T05:03:10.850Z,0.91
2023-04-27T05:04:10.921Z,0.79
2023-04-27T05:05:10.675Z,0.66
2023-04-27T05:06:10.632Z,0.70
2023-04-27T05:07:11.459Z,0.59
2023-04-27T05:08:10.563Z,0.37
2023-04-27T05:09:10.528Z,0.52
2023-04-27T05:10:10.480Z,0.88
2023-04-27T05:11:10.435Z,0.67
2023-04-27T05:12:10.403Z,0.81
2023-04-27T05:13:10.359Z,0.60
2023-04-27T05:14:10.308Z,0.68
2023-04-27T05:15:10.261Z,0.67
2023-04-27T05:16:10.250Z,0.92
2023-04-27T05:17:10.167Z,1.01
2023-04-27T05:18:10.129Z,2.54
2023-04-27T05:19:10.086Z,3.00
2023-04-27T05:20:10.084Z,3.18
2023-04-27T05:21:10.021Z,4.02
2023-04-27T05:22:09.998Z,4.49
2023-04-27T05:23:09.988Z,4.28
2023-04-27T05:24:09.996Z,3.73
2023-04-27T05:25:09.974Z,4.61
2023-04-27T05:26:09.958Z,4.25
2023-04-27T05:27:09.959Z,4.43
2023-04-27T05:28:10.093Z,4.54
2023-04-27T05:29:09.913Z,4.66
2023-04-27T05:30:09.942Z,4.39
2023-04-27T05:31:09.932Z,4.49
2023-04-27T05:32:09.972Z,4.54
2023-04-27T05:33:10.311Z,4.08
2023-04-27T05:34:09.870Z,3.95
2023-04-27T05:35:09.854Z,3.70
2023-04-27T05:36:09.831Z,3.60
2023-04-27T05:37:09.818Z,3.99
2023-04-27T05:38:09.863Z,4.17
2023-04-27T05:39:09.867Z,4.19
2023-04-27T05:40:09.873Z,3.79
2023-04-27T05:41:09.870Z,3.07
2023-04-27T05:42:09.844Z,3.52
2023-04-27T05:43:09.822Z,4.07
2023-04-27T05:44:09.786Z,3.75
2023-04-27T05:45:09.754Z,3.68
2023-04-27T05:46:09.752Z,3.19
2023-04-27T05:47:09.719Z,3.31
2023-04-27T05:48:09.706Z,3.54
2023-04-27T05:49:09.733Z,2.87
2023-04-27T05:50:09.732Z,3.33
2023-04-27T05:51:09.750Z,3.20
2023-04-27T05:52:09.749Z,3.52
2023-04-27T05:53:09.743Z,3.18
2023-04-27T05:54:09.734Z,2.92
2023-04-27T05:55:09.740Z,3.36
2023-04-27T05:56:09.720Z,3.71
2023-04-27T05:57:09.696Z,3.83
2023-04-27T05:58:09.680Z,3.87
2023-04-27T05:59:09.684Z,3.62
2023-04-27T06:00:09.646Z,2.87
2023-04-27T06:01:09.596Z,3.70
2023-04-27T06:02:09.579Z,2.79
2023-04-27T06:03:09.655Z,3.33
2023-04-27T06:04:09.570Z,2.86
2023-04-27T06:05:09.554Z,3.23
2023-04-27T06:06:09.437Z,3.31
2023-04-27T06:07:10.264Z,3.09
2023-04-27T06:08:09.352Z,2.90
2023-04-27T06:09:09.315Z,3.51
2023-04-27T06:10:09.266Z,3.43
2023-04-27T06:11:09.227Z,2.62
2023-04-27T06:12:09.168Z,3.06
2023-04-27T06:13:09.144Z,2.77
2023-04-27T06:14:09.088Z,2.53
2023-04-27T06:15:09.025Z,2.98
2023-04-27T06:16:09.066Z,2.85
2023-04-27T06:17:08.924Z,3.02
2023-04-27T06:18:08.913Z,2.84
2023-04-27T06:19:08.833Z,3.16
2023-04-27T06:20:08.778Z,3.29
2023-04-27T06:21:09.309Z,3.45
2023-04-27T06:22:08.656Z,3.10
2023-04-27T06:23:08.608Z,3.37
2023-04-27T06:24:08.574Z,3.01
2023-04-27T06:25:08.558Z,3.17
2023-04-27T06:26:08.655Z,2.73
2023-04-27T06:27:08.532Z,3.87
2023-04-27T06:28:08.493Z,3.00
2023-04-27T06:29:08.443Z,3.51
2023-04-27T06:30:08.426Z,4.20
2023-04-27T06:31:08.487Z,4.24
2023-04-27T06:32:08.627Z,4.32
2023-04-27T06:33:08.517Z,3.63
2023-04-27T06:34:08.491Z,3.64
2023-04-27T06:35:08.524Z,3.83
2023-04-27T06:36:09.278Z,3.25
2023-04-27T06:37:08.466Z,3.88
2023-04-27T06:38:08.456Z,3.96
2023-04-27T06:39:08.422Z,3.95
2023-04-27T06:40:08.376Z,3.26
2023-04-27T06:41:08.364Z,3.50
2023-04-27T06:42:08.319Z,3.65
2023-04-27T06:43:08.255Z,3.40
2023-04-27T06:44:08.199Z,4.05
2023-04-27T06:45:08.165Z,3.51
2023-04-27T06:46:08.153Z,3.55
2023-04-27T06:47:08.092Z,3.35
2023-04-27T06:48:08.068Z,3.65
2023-04-27T06:49:08.001Z,3.38
2023-04-27T06:50:07.997Z,3.78
2023-04-27T06:51:08.004Z,3.48
2023-04-27T06:52:07.998Z,3.37
2023-04-27T06:53:07.980Z,4.03
2023-04-27T06:54:07.984Z,3.27
2023-04-27T06:55:07.992Z,3.62
2023-04-27T06:56:07.990Z,3.40
2023-04-27T06:57:07.981Z,3.85
2023-04-27T06:58:07.971Z,3.23
2023-04-27T06:59:08.186Z,3.02
2023-04-27T07:00:08.114Z,3.12
2023-04-27T07:01:08.872Z,2.79
2023-04-27T07:02:07.956Z,3.15
2023-04-27T07:03:08.080Z,3.03
2023-04-27T07:04:08.043Z,3.51
2023-04-27T07:05:07.947Z,3.69
2023-04-27T07:06:07.948Z,3.30
2023-04-27T07:07:07.922Z,3.74
2023-04-27T07:08:08.746Z,2.70
2023-04-27T07:09:16.335Z,3.20
2023-04-27T07:10:08.827Z,3.33
2023-04-27T07:11:07.772Z,3.50
2023-04-27T07:12:07.692Z,3.32
2023-04-27T07:13:09.200Z,3.57
2023-04-27T07:14:07.555Z,3.87
2023-04-27T07:15:07.485Z,3.29
2023-04-27T07:16:07.467Z,3.46
2023-04-27T07:17:07.442Z,3.59
2023-04-27T07:18:07.875Z,3.28
2023-04-27T07:19:07.194Z,3.34
2023-04-27T07:20:07.821Z,3.24
2023-04-27T07:21:07.079Z,3.25
2023-04-27T07:22:07.022Z,3.62
2023-04-27T07:23:07.021Z,3.71
2023-04-27T07:24:07.017Z,2.99
2023-04-27T07:25:07.034Z,3.43
2023-04-27T07:26:07.761Z,3.15
2023-04-27T07:27:08.831Z,3.67
2023-04-27T07:28:07.027Z,4.02
2023-04-27T07:29:18.751Z,3.14
2023-04-27T07:30:07.954Z,3.21
2023-04-27T07:31:06.910Z,3.43
2023-04-27T07:32:07.024Z,3.16
2023-04-27T07:33:06.903Z,3.71
2023-04-27T07:34:06.714Z,3.59
2023-04-27T07:35:06.649Z,3.29
2023-04-27T07:36:06.707Z,3.96
2023-04-27T07:37:06.536Z,3.36
2023-04-27T07:38:06.484Z,3.67
2023-04-27T07:39:06.437Z,3.42
2023-04-27T07:40:06.378Z,2.52
2023-04-27T07:41:06.315Z,2.65
2023-04-27T07:42:06.259Z,2.94
2023-04-27T07:43:06.229Z,3.19
2023-04-27T07:44:06.175Z,2.44
2023-04-27T07:45:06.835Z,2.82
2023-04-27T07:46:06.118Z,3.32
2023-04-27T07:47:06.000Z,3.35
2023-04-27T07:48:06.004Z,3.07
2023-04-27T07:49:05.872Z,3.19
2023-04-27T07:50:05.819Z,3.87
2023-04-27T07:51:05.760Z,2.73
2023-04-27T07:52:05.700Z,2.67
2023-04-27T07:53:05.646Z,3.43
2023-04-27T07:54:05.632Z,3.00
2023-04-27T07:55:05.537Z,2.88
2023-04-27T07:56:05.552Z,3.17
2023-04-27T07:57:05.401Z,3.09
2023-04-27T07:58:05.843Z,2.95
2023-04-27T07:59:05.279Z,2.83
2023-04-27T08:00:05.237Z,2.83
2023-04-27T08:01:05.185Z,2.96
2023-04-27T08:02:18.334Z,2.44
2023-04-27T08:03:06.324Z,3.29
2023-04-27T08:04:05.315Z,2.81
2023-04-27T08:05:05.367Z,2.92
2023-04-27T08:06:05.184Z,3.34
2023-04-27T08:07:05.223Z,3.36
2023-04-27T08:08:04.884Z,2.89
2023-04-27T08:09:04.725Z,3.25
2023-04-27T08:10:04.681Z,2.90
2023-04-27T08:11:04.616Z,2.71
2023-04-27T08:12:04.568Z,3.21
2023-04-27T08:13:04.520Z,2.87
2023-04-27T08:14:04.465Z,3.08
2023-04-27T08:15:06.378Z,4.86
2023-04-27T08:16:05.374Z,4.17
2023-04-27T08:17:04.510Z,4.09
2023-04-27T08:18:04.485Z,3.83
2023-04-27T08:19:04.502Z,4.20
2023-04-27T08:20:04.525Z,4.34
2023-04-27T08:21:04.513Z,3.74
2023-04-27T08:22:04.544Z,4.15
2023-04-27T08:23:04.536Z,3.73
2023-04-27T08:24:04.524Z,3.60
2023-04-27T08:25:04.502Z,3.88
2023-04-27T08:26:04.471Z,4.00
2023-04-27T08:27:04.465Z,3.83
2023-04-27T08:28:04.447Z,3.95
2023-04-27T08:29:15.502Z,3.87
2023-04-27T08:30:05.424Z,4.27
2023-04-27T08:31:04.427Z,3.57
2023-04-27T08:32:04.349Z,2.74
2023-04-27T08:33:04.399Z,3.54
2023-04-27T08:34:04.205Z,4.07
2023-04-27T08:35:04.165Z,3.42
2023-04-27T08:36:04.107Z,4.19
2023-04-27T08:37:04.054Z,3.42
2023-04-27T08:38:04.006Z,3.14
2023-04-27T08:39:03.963Z,3.52
2023-04-27T08:40:03.950Z,3.29
2023-04-27T08:41:18.025Z,3.64
2023-04-27T08:42:04.865Z,3.26
2023-04-27T08:43:03.811Z,3.35
2023-04-27T08:44:04.345Z,4.24
2023-04-27T08:45:03.715Z,3.43
2023-04-27T08:46:03.695Z,4.16
2023-04-27T08:47:03.653Z,3.23
2023-04-27T08:48:03.707Z,3.51
2023-04-27T08:49:03.515Z,3.34
2023-04-27T08:50:03.463Z,3.48
2023-04-27T08:51:03.401Z,3.45
2023-04-27T08:52:03.353Z,3.63
2023-04-27T08:53:03.300Z,3.03
2023-04-27T08:54:03.255Z,3.43
2023-04-27T08:55:03.205Z,4.08
2023-04-27T08:56:03.150Z,3.36
2023-04-27T08:57:03.093Z,3.33
2023-04-27T08:58:03.037Z,3.24
2023-04-27T08:59:02.991Z,2.80
2023-04-27T09:00:02.954Z,3.28
2023-04-27T09:01:02.915Z,2.85
2023-04-27T09:02:02.943Z,3.47
2023-04-27T09:03:02.982Z,3.41
2023-04-27T09:04:03.047Z,3.72
2023-04-27T09:05:02.970Z,3.41
2023-04-27T09:06:05.604Z,3.10
2023-04-27T09:07:02.697Z,2.81
2023-04-27T09:08:02.639Z,3.02
2023-04-27T09:09:02.601Z,2.84
2023-04-27T09:10:02.521Z,3.25
2023-04-27T09:11:02.503Z,2.91
2023-04-27T09:12:02.401Z,3.05
2023-04-27T09:13:02.362Z,2.89
2023-04-27T09:14:02.312Z,3.00
2023-04-27T09:15:02.256Z,2.96
2023-04-27T09:16:02.203Z,3.24
2023-04-27T09:17:02.141Z,2.78
2023-04-27T09:18:02.126Z,3.12
2023-04-27T09:19:02.035Z,3.73
2023-04-27T09:20:01.982Z,3.68
2023-04-27T09:21:01.930Z,3.11
2023-04-27T09:22:01.871Z,2.82
2023-04-27T09:23:01.813Z,3.35
2023-04-27T09:24:01.756Z,3.28
2023-04-27T09:25:01.720Z,2.94
2023-04-27T09:26:01.647Z,3.24
2023-04-27T09:27:01.614Z,3.09
2023-04-27T09:28:01.601Z,2.73
2023-04-27T09:29:01.512Z,2.97
2023-04-27T09:30:01.471Z,2.78
2023-04-27T09:31:01.404Z,3.03
2023-04-27T09:32:01.383Z,3.24
2023-04-27T09:33:01.382Z,3.13
2023-04-27T09:34:01.281Z,3.14
2023-04-27T09:35:01.254Z,2.75
2023-04-27T09:36:01.153Z,3.25
2023-04-27T09:37:01.123Z,2.84
2023-04-27T09:38:01.072Z,3.21
2023-04-27T09:39:00.974Z,3.04
2023-04-27T09:40:00.920Z,2.71
2023-04-27T09:41:01.818Z,3.09
2023-04-27T09:42:00.809Z,2.93
2023-04-27T09:43:00.757Z,2.62
2023-04-27T09:44:00.706Z,2.83
2023-04-27T09:45:00.828Z,2.50
2023-04-27T09:46:00.580Z,2.98
2023-04-27T09:47:00.531Z,2.53
2023-04-27T09:48:00.490Z,2.44
2023-04-27T09:49:00.414Z,3.52
2023-04-27T09:50:00.352Z,3.07
2023-04-27T09:51:00.319Z,3.18
2023-04-27T09:52:00.254Z,2.91
2023-04-27T09:53:00.208Z,3.06
2023-04-27T09:54:00.167Z,3.31
2023-04-27T09:55:00.873Z,2.90
2023-04-27T09:56:00.073Z,3.20
2023-04-27T09:57:00.000Z,2.57
2023-04-27T09:57:59.957Z,3.00
2023-04-27T09:58:59.909Z,2.54
2023-04-27T09:59:59.829Z,3.38
2023-04-27T10:00:59.804Z,2.89
2023-04-27T10:02:02.767Z,2.88
2023-04-27T10:03:00.722Z,2.38
2023-04-27T10:03:59.835Z,3.11
2023-04-27T10:04:59.651Z,2.81
2023-04-27T10:05:59.514Z,2.73
2023-04-27T10:06:59.450Z,3.07
2023-04-27T10:07:59.388Z,3.02
2023-04-27T10:08:59.342Z,4.24
2023-04-27T10:09:59.279Z,5.14
2023-04-27T10:10:59.236Z,6.77
2023-04-27T10:11:59.174Z,13.07
2023-04-27T10:12:59.131Z,17.26
2023-04-27T10:13:59.068Z,20.55
2023-04-27T10:14:59.015Z,23.67
2023-04-27T10:15:58.952Z,21.80
2023-04-27T10:16:58.993Z,18.54
2023-04-27T10:17:58.994Z,22.51
2023-04-27T10:18:58.786Z,23.53
2023-04-27T10:19:58.842Z,24.25
2023-04-27T10:20:59.399Z,23.58
2023-04-27T10:21:58.610Z,23.39
2023-04-27T10:22:58.582Z,21.47
2023-04-27T10:23:58.482Z,20.77
2023-04-27T10:24:58.421Z,20.90
2023-04-27T10:25:58.375Z,25.60
2023-04-27T10:26:58.290Z,22.44
2023-04-27T10:27:58.237Z,21.02
2023-04-27T10:28:58.903Z,24.38
2023-04-27T10:29:58.096Z,22.31
2023-04-27T10:30:58.089Z,21.08
2023-04-27T10:31:57.978Z,25.61
2023-04-27T10:32:57.912Z,22.84
2023-04-27T10:33:57.834Z,20.48
2023-04-27T10:34:57.782Z,21.08
2023-04-27T10:35:57.731Z,19.10
2023-04-27T10:36:57.647Z,22.29
2023-04-27T10:37:57.574Z,20.85
2023-04-27T10:38:58.402Z,20.40
2023-04-27T10:39:57.464Z,23.73
2023-04-27T10:40:57.395Z,19.27
2023-04-27T10:41:57.323Z,19.36
2023-04-27T10:42:57.262Z,17.46
2023-04-27T10:43:57.190Z,18.22
2023-04-27T10:44:57.164Z,17.57
2023-04-27T10:45:57.099Z,17.34
2023-04-27T10:46:57.407Z,17.76
2023-04-27T10:47:56.989Z,17.25
2023-04-27T10:48:56.866Z,18.61
2023-04-27T10:49:56.810Z,15.78
2023-04-27T10:50:56.736Z,16.46
2023-04-27T10:51:56.698Z,16.52
2023-04-27T10:52:56.617Z,16.52
2023-04-27T10:53:56.555Z,16.63
2023-04-27T10:54:56.508Z,15.35
2023-04-27T10:55:56.448Z,17.43
2023-04-27T10:56:56.393Z,18.43
2023-04-27T10:57:56.324Z,14.70
2023-04-27T10:58:56.271Z,13.54
2023-04-27T10:59:56.199Z,15.76
2023-04-27T11:00:56.119Z,16.11
2023-04-27T11:01:56.094Z,17.51
2023-04-27T11:02:56.062Z,19.38
2023-04-27T11:03:56.008Z,15.83
2023-04-27T11:04:55.938Z,14.37
2023-04-27T11:05:58.043Z,16.39
2023-04-27T11:06:55.704Z,14.33
2023-04-27T11:07:55.644Z,13.49
2023-04-27T11:08:55.550Z,14.56
2023-04-27T11:09:55.492Z,14.38
2023-04-27T11:10:55.444Z,15.81
2023-04-27T11:11:55.427Z,15.07
2023-04-27T11:12:55.399Z,16.25
2023-04-27T11:13:55.411Z,12.08
2023-04-27T11:14:55.385Z,15.89
2023-04-27T11:15:55.471Z,14.90
2023-04-27T11:16:55.372Z,12.78
2023-04-27T11:17:55.404Z,14.10
2023-04-27T11:18:55.383Z,13.20
2023-04-27T11:19:55.383Z,14.11
2023-04-27T11:20:55.394Z,13.42
2023-04-27T11:21:55.409Z,12.52
2023-04-27T11:22:55.428Z,16.23
2023-04-27T11:23:55.452Z,14.10
2023-04-27T11:24:55.450Z,13.10
2023-04-27T11:25:55.466Z,15.24
2023-04-27T11:26:55.468Z,14.62
2023-04-27T11:27:55.489Z,12.06
2023-04-27T11:28:55.513Z,10.48
2023-04-27T11:29:55.546Z,10.25
2023-04-27T11:30:55.549Z,11.56
2023-04-27T11:31:55.589Z,12.15
2023-04-27T11:32:55.516Z,14.16
2023-04-27T11:33:56.131Z,11.81
2023-04-27T11:34:57.213Z,13.16
2023-04-27T11:35:55.363Z,14.02
2023-04-27T11:36:58.728Z,11.77
2023-04-27T11:37:56.232Z,12.04
2023-04-27T11:38:55.188Z,11.78
2023-04-27T11:39:55.113Z,11.15
2023-04-27T11:40:55.056Z,12.55
2023-04-27T11:41:54.995Z,11.15
2023-04-27T11:42:54.946Z,12.06
2023-04-27T11:43:54.938Z,11.06
2023-04-27T11:44:54.833Z,12.76
2023-04-27T11:45:54.771Z,11.29
2023-04-27T11:46:54.771Z,11.16
2023-04-27T11:47:54.667Z,9.94
2023-04-27T11:48:54.596Z,10.35
2023-04-27T11:49:54.551Z,8.86
2023-04-27T11:50:54.482Z,8.61
2023-04-27T11:51:54.428Z,9.82
2023-04-27T11:52:54.364Z,10.74
2023-04-27T11:53:54.318Z,10.63
2023-04-27T11:54:54.258Z,12.01
2023-04-27T11:55:54.200Z,11.34
2023-04-27T11:56:54.146Z,12.68
2023-04-27T11:57:54.093Z,10.31
2023-04-27T11:58:54.056Z,8.37
2023-04-27T11:59:53.992Z,9.78
2023-04-27T12:00:53.929Z,10.36
2023-04-27T12:01:53.899Z,10.16
2023-04-27T12:02:53.940Z,9.51
2023-04-27T12:03:53.922Z,9.44
2023-04-27T12:04:53.913Z,10.09
2023-04-27T12:05:53.735Z,10.21
2023-04-27T12:06:53.628Z,8.50
2023-04-27T12:07:53.578Z,10.49
2023-04-27T12:08:53.534Z,10.18
2023-04-27T12:09:53.487Z,9.62
2023-04-27T12:10:53.462Z,7.50
2023-04-27T12:11:53.426Z,8.30
2023-04-27T12:12:53.384Z,8.78
2023-04-27T12:13:53.342Z,9.18
2023-04-27T12:14:53.298Z,10.06
2023-04-27T12:15:53.251Z,9.83
2023-04-27T12:16:53.235Z,8.57
2023-04-27T12:17:53.255Z,8.08
2023-04-27T12:18:53.148Z,9.63
2023-04-27T12:19:53.119Z,8.78
2023-04-27T12:20:53.070Z,10.05
2023-04-27T12:21:53.034Z,8.38
2023-04-27T12:22:53.010Z,7.66
2023-04-27T12:23:52.967Z,7.65
2023-04-27T12:24:52.929Z,7.23
2023-04-27T12:25:52.911Z,8.36
2023-04-27T12:26:52.882Z,7.67
2023-04-27T12:27:52.815Z,8.92
2023-04-27T12:28:52.792Z,8.16
2023-04-27T12:29:52.754Z,8.19
2023-04-27T12:30:52.762Z,7.75
2023-04-27T12:31:52.685Z,8.72
2023-04-27T12:32:52.709Z,7.76
2023-04-27T12:33:52.621Z,8.50
2023-04-27T12:34:52.568Z,9.05
2023-04-27T12:35:52.539Z,7.86
2023-04-27T12:36:52.501Z,7.31
2023-04-27T12:37:52.467Z,8.00
2023-04-27T12:38:52.435Z,8.55
2023-04-27T12:39:52.400Z,7.94
2023-04-27T12:40:52.368Z,6.57
2023-04-27T12:41:52.344Z,8.00
2023-04-27T12:42:52.285Z,7.82
2023-04-27T12:43:52.266Z,7.35
2023-04-27T12:44:52.240Z,8.80
2023-04-27T12:45:52.229Z,8.05
2023-04-27T12:46:52.532Z,7.86
2023-04-27T12:48:52.141Z,8.58
2023-04-27T12:49:52.046Z,6.44
2023-04-27T12:50:52.021Z,6.87
2023-04-27T12:51:52.127Z,6.62
2023-04-27T12:52:51.945Z,6.89
2023-04-27T12:53:51.917Z,6.50
2023-04-27T12:54:51.887Z,8.04
2023-04-27T12:55:51.852Z,7.09
2023-04-27T12:56:51.813Z,8.31
2023-04-27T12:57:51.774Z,6.20
2023-04-27T12:58:51.756Z,7.27
2023-04-27T12:59:51.715Z,6.29
2023-04-27T13:00:51.686Z,6.95
2023-04-27T13:01:51.711Z,6.12
2023-04-27T13:02:51.706Z,6.16
2023-04-27T13:03:51.728Z,7.74
2023-04-27T13:04:51.645Z,6.81
2023-04-27T13:05:51.533Z,6.48
2023-04-27T13:06:51.527Z,4.84
2023-04-27T13:07:51.479Z,6.76
2023-04-27T13:08:51.523Z,6.06
2023-04-27T13:09:51.419Z,5.82
2023-04-27T13:10:51.414Z,5.26
2023-04-27T13:11:51.352Z,5.97
2023-04-27T13:12:51.330Z,6.97
2023-04-27T13:13:51.303Z,6.30
2023-04-27T13:14:51.282Z,5.97